Airport ICAO


09:07 UTC

0°C

Clear skies


An affordable passengers' Moving Map for your aircraft. Made for the iPad and the iPhone
More information here

LFPO Orly


Paris FRANCE   VFR CAVOK


METAR LFPO 180900Z 23003KT CAVOK M00/M01 Q1020 NOSIG 0h07min

TAF LFPO 180500Z 1806/1912 VRB02KT CAVOK BECMG 1808/1810 16004KT PROB30 TEMPO 1909/1912 4000 -SN OVC013 PROB40 TEMPO 1911/1912 -RA BKN020 4h07min





NOTAMS

OPEN